Maria P — SV4226 — position and weather

sailwx.info

Track history (hours):
 
Tides and Currents Weather Stations Pressure Air Temp Water Temp Dewpoint Dewpoint Depression Visibility Wind Speed Wind Dir Waves Ship Positions

Maria P

Last reported at 2017-Nov-18 03:55 UTC. Time now 2017-Nov-18 04:43 UTC.
Position N 35°22' E 024°29'.

Length 73 m; draft 3 m.

Type: Cargo ship. MMSI: 237128700.

Date/timePositionNaut miles runAvg speedWind from/ knotsBaromVisibWave heightAir tempDewpointWater temp
2017-Nov-18 03:55N 35°22' E 024°29'0 0.0
2017-Nov-18 03:31N 35°22' E 024°29'0 0.0
2017-Nov-18 03:00N 35°22' E 024°29'0 0.0
2017-Nov-18 02:31N 35°22' E 024°29'0 0.0
2017-Nov-18 02:01N 35°22' E 024°29'0 0.0
2017-Nov-18 01:30N 35°22' E 024°29'0 0.0
2017-Nov-18 01:01N 35°22' E 024°29'0 0.0
2017-Nov-18 00:30N 35°22' E 024°29'0 0.0
2017-Nov-18 00:00N 35°22' E 024°29'0 0.0
2017-Nov-17 23:31N 35°22' E 024°29'0 0.0
2017-Nov-17 23:00N 35°22' E 024°29'0 0.0
2017-Nov-17 22:30N 35°22' E 024°29'0 0.0
2017-Nov-17 22:00N 35°22' E 024°29'0 0.0
2017-Nov-17 21:30N 35°22' E 024°29'0 0.0
2017-Nov-17 21:00N 35°22' E 024°29'0 0.0
2017-Nov-17 20:31N 35°22' E 024°29'0 0.0
2017-Nov-17 20:00N 35°22' E 024°29'0 0.0
2017-Nov-17 19:31N 35°22' E 024°29'0 0.0
2017-Nov-17 19:00N 35°22' E 024°29'2 3.3
2017-Nov-17 18:30N 35°23' E 024°30'141 6.0
2017-Nov-16 19:08N 37°39' E 023°44'1 8.7
2017-Nov-16 19:00N 37°40' E 023°43'4 8.7
2017-Nov-16 18:30N 37°43' E 023°40'4 8.9
2017-Nov-16 18:00N 37°47' E 023°38'5 9.4
2017-Nov-16 17:30N 37°52' E 023°36'5 9.9
2017-Nov-16 17:00N 37°57' E 023°35'4 8.6
2017-Nov-16 16:31N 38°01' E 023°33'1 2.7
2017-Nov-16 16:00N 38°02' E 023°33'0 0.0
2017-Nov-16 15:30N 38°02' E 023°33'0 0.0
2017-Nov-16 15:00N 38°02' E 023°33'0 0.0
2017-Nov-16 14:30N 38°02' E 023°33'0 0.0
2017-Nov-16 14:00N 38°02' E 023°33'0 0.0
2017-Nov-16 13:30N 38°02' E 023°33'0 0.0
2017-Nov-16 13:00N 38°02' E 023°33'0 0.0
2017-Nov-16 12:30N 38°02' E 023°33'0 0.0
2017-Nov-16 12:00N 38°02' E 023°33'0 0.0
2017-Nov-16 11:30N 38°02' E 023°33'0 0.0
2017-Nov-16 11:00N 38°02' E 023°33'0 0.0
2017-Nov-16 10:30N 38°02' E 023°33'0 0.0
2017-Nov-16 10:00N 38°02' E 023°33'0 0.0
2017-Nov-16 09:30N 38°02' E 023°33'0 0.0
2017-Nov-16 09:00N 38°02' E 023°33'0 0.0
2017-Nov-16 08:30N 38°02' E 023°33'0 0.0
2017-Nov-16 08:00N 38°02' E 023°33'0 0.0
2017-Nov-16 07:30N 38°02' E 023°33'0 0.0
2017-Nov-16 07:00N 38°02' E 023°33'0 0.0
2017-Nov-16 06:30N 38°02' E 023°33'0 0.0
2017-Nov-16 06:01N 38°02' E 023°33'0 0.0
2017-Nov-16 05:30N 38°02' E 023°33'0 0.0
2017-Nov-16 05:01N 38°02' E 023°33'0 0.0
2017-Nov-16 04:30N 38°02' E 023°33'0 0.0
2017-Nov-16 04:01N 38°02' E 023°33'0 0.0
2017-Nov-16 03:30N 38°02' E 023°33'0 0.0
2017-Nov-16 03:01N 38°02' E 023°33'0 0.0
2017-Nov-16 02:30N 38°02' E 023°33'0 0.0
2017-Nov-16 02:00N 38°02' E 023°33'0 0.0
2017-Nov-16 01:31N 38°02' E 023°33'0 0.0
2017-Nov-16 01:01N 38°02' E 023°33'0 0.0
2017-Nov-16 00:31N 38°02' E 023°33'0 0.0
2017-Nov-16 00:01N 38°02' E 023°33'0 0.0
2017-Nov-15 23:31N 38°02' E 023°33'0 0.0
2017-Nov-15 23:00N 38°02' E 023°33'0 0.0
2017-Nov-15 22:30N 38°02' E 023°33'0 0.0
2017-Nov-15 22:01N 38°02' E 023°33'0 0.0
2017-Nov-15 21:30N 38°02' E 023°33'0 0.0
2017-Nov-15 21:00N 38°02' E 023°33'0 0.0
2017-Nov-15 20:30N 38°02' E 023°33'0 0.0
2017-Nov-15 20:00N 38°02' E 023°33'0 0.0
2017-Nov-15 19:30N 38°02' E 023°33'0 0.0
2017-Nov-15 19:00N 38°02' E 023°33'0 0.0
2017-Nov-15 18:31N 38°02' E 023°33'0 0.0
2017-Nov-15 18:00N 38°02' E 023°33'0 0.0
2017-Nov-15 17:31N 38°02' E 023°33'0 0.0
2017-Nov-15 17:00N 38°02' E 023°33'0 0.0
2017-Nov-15 16:30N 38°02' E 023°33'0 0.0
2017-Nov-15 16:01N 38°02' E 023°33'0 0.0
2017-Nov-15 15:30N 38°02' E 023°33'0 0.0
2017-Nov-15 15:00N 38°02' E 023°33'0 0.0
2017-Nov-15 14:30N 38°02' E 023°33'0 0.0
2017-Nov-15 14:00N 38°02' E 023°33'0 0.0
2017-Nov-15 13:31N 38°02' E 023°33'0 0.0
2017-Nov-15 13:00N 38°02' E 023°33'0 0.0
2017-Nov-15 12:30N 38°02' E 023°33'0 0.0
2017-Nov-15 12:00N 38°02' E 023°33'0 0.0
2017-Nov-15 11:30N 38°02' E 023°33'0 0.0
2017-Nov-15 11:00N 38°02' E 023°33'0 0.0
2017-Nov-15 10:31N 38°02' E 023°33'0 0.0
2017-Nov-15 10:01N 38°02' E 023°33'0 0.0
2017-Nov-15 09:31N 38°02' E 023°33'0 0.0
2017-Nov-15 09:00N 38°02' E 023°33'0 0.0
2017-Nov-15 08:30N 38°02' E 023°33'0 0.0
2017-Nov-15 08:01N 38°02' E 023°33'0 0.0
2017-Nov-15 07:30N 38°02' E 023°33'0 0.0
2017-Nov-15 07:00N 38°02' E 023°33'0 0.0
2017-Nov-15 06:30N 38°02' E 023°33'0 0.0
2017-Nov-15 06:01N 38°02' E 023°33'0 0.0
2017-Nov-15 05:30N 38°02' E 023°33'0 0.0
2017-Nov-15 05:00N 38°02' E 023°33'0 0.0
2017-Nov-15 04:30N 38°02' E 023°33'0 0.0
2017-Nov-15 04:00N 38°02' E 023°33'0 0.0
2017-Nov-15 03:30N 38°02' E 023°33'0 0.0
2017-Nov-15 03:00N 38°02' E 023°33'0 0.0
2017-Nov-15 02:30N 38°02' E 023°33'0 0.0
2017-Nov-15 02:01N 38°02' E 023°33'0 0.0
2017-Nov-15 01:30N 38°02' E 023°33'0 0.0
2017-Nov-15 01:00N 38°02' E 023°33'0 0.0
2017-Nov-15 00:31N 38°02' E 023°33'0 0.0
2017-Nov-15 00:01N 38°02' E 023°33'0 0.0
2017-Nov-14 23:30N 38°02' E 023°33'0 0.0
2017-Nov-14 23:00N 38°02' E 023°33'0 0.0
2017-Nov-14 22:30N 38°02' E 023°33'0 0.0
2017-Nov-14 22:00N 38°02' E 023°33'0 0.0
2017-Nov-14 21:30N 38°02' E 023°33'0 0.0
2017-Nov-14 21:00N 38°02' E 023°33'0 0.0
2017-Nov-14 20:31N 38°02' E 023°33'0 0.0
2017-Nov-14 20:01N 38°02' E 023°33'0 0.0
2017-Nov-14 19:30N 38°02' E 023°33'0 0.0
2017-Nov-14 19:00N 38°02' E 023°33'0 0.0
2017-Nov-14 18:31N 38°02' E 023°33'0 0.0
2017-Nov-14 18:00N 38°02' E 023°33'0 0.0
2017-Nov-14 17:30N 38°02' E 023°33'0 0.0
2017-Nov-14 17:00N 38°02' E 023°33'0 0.0
2017-Nov-14 16:30N 38°02' E 023°33'0 0.0
2017-Nov-14 16:00N 38°02' E 023°33'0 0.0
2017-Nov-14 15:30N 38°02' E 023°33'0 0.0
2017-Nov-14 15:00N 38°02' E 023°33'0 0.0
2017-Nov-14 14:30N 38°02' E 023°33'0 0.0
2017-Nov-14 14:00N 38°02' E 023°33'0 0.0
2017-Nov-14 13:30N 38°02' E 023°33'0 0.0
2017-Nov-14 13:00N 38°02' E 023°33'0 0.0
2017-Nov-14 12:30N 38°02' E 023°33'0 0.0
2017-Nov-14 12:00N 38°02' E 023°33'0 0.0
2017-Nov-14 11:30N 38°02' E 023°33'0 0.0
2017-Nov-14 11:00N 38°02' E 023°33'0 0.0
2017-Nov-14 10:30N 38°02' E 023°33'0 0.0
2017-Nov-14 10:00N 38°02' E 023°33'0 0.0
2017-Nov-14 09:30N 38°02' E 023°33'0 0.0
2017-Nov-14 09:00N 38°02' E 023°33'0 0.0
2017-Nov-14 08:30N 38°02' E 023°33'0 0.0
2017-Nov-14 08:00N 38°02' E 023°33'0 0.0
2017-Nov-14 07:30N 38°02' E 023°33'0 0.0
2017-Nov-14 07:00N 38°02' E 023°33'0 0.0
2017-Nov-14 06:31N 38°02' E 023°33'0 0.0
2017-Nov-14 06:00N 38°02' E 023°33'0 0.0
2017-Nov-14 05:30N 38°02' E 023°33'0 0.0
2017-Nov-14 05:01N 38°02' E 023°33'0 0.0
2017-Nov-14 04:30N 38°02' E 023°33'0 0.0
2017-Nov-14 04:00N 38°02' E 023°33'0 0.0
2017-Nov-14 03:30N 38°02' E 023°33'0 0.0
2017-Nov-14 03:00N 38°02' E 023°33'0 0.0
2017-Nov-14 02:30N 38°02' E 023°33'0 0.0
2017-Nov-14 02:00N 38°02' E 023°33'0 0.0
2017-Nov-14 01:30N 38°02' E 023°33'0 0.0
2017-Nov-14 01:00N 38°02' E 023°33'0 0.0
2017-Nov-14 00:31N 38°02' E 023°33'0 0.0
2017-Nov-14 00:00N 38°02' E 023°33'0 0.0
2017-Nov-13 23:30N 38°02' E 023°33'0 0.0
2017-Nov-13 23:00N 38°02' E 023°33'0 0.0
2017-Nov-13 22:30N 38°02' E 023°33'0 0.0
2017-Nov-13 22:00N 38°02' E 023°33'26 0.9
2017-Nov-12 15:24N 37°39' E 023°49'410.5
2017-Nov-12 15:00N 37°40' E 023°44'5 9.7
2017-Nov-12 14:30N 37°44' E 023°40'510.2
2017-Nov-12 14:00N 37°49' E 023°38'510.3
2017-Nov-12 13:30N 37°53' E 023°35'4 8.7
2017-Nov-12 13:00N 37°57' E 023°33'5 9.5
2017-Nov-12 12:30N 38°02' E 023°33'0 0.1
2017-Nov-12 12:00N 38°02' E 023°33'0 0.0
2017-Nov-12 11:31N 38°02' E 023°33'0 0.0
2017-Nov-12 11:00N 38°02' E 023°33'0 0.0
2017-Nov-12 10:31N 38°02' E 023°33'0 0.0
2017-Nov-12 10:00N 38°02' E 023°33'0 0.0
2017-Nov-12 09:31N 38°02' E 023°33'0 0.0
2017-Nov-12 09:00N 38°02' E 023°33'0 0.0
2017-Nov-12 08:31N 38°02' E 023°33'0 0.0
2017-Nov-12 08:00N 38°02' E 023°33'0 0.0
2017-Nov-12 07:30N 38°02' E 023°33'0 0.0
2017-Nov-12 07:00N 38°02' E 023°33'0 0.0
2017-Nov-12 06:30N 38°02' E 023°33'0 0.0
2017-Nov-12 06:00N 38°02' E 023°33'0 0.0
2017-Nov-12 05:30N 38°02' E 023°33'0 0.0
2017-Nov-12 05:00N 38°02' E 023°33'0 0.0
2017-Nov-12 04:30N 38°02' E 023°33'0 0.0
2017-Nov-12 04:00N 38°02' E 023°33'0 0.0
2017-Nov-12 03:30N 38°02' E 023°33'0 0.0
2017-Nov-12 03:00N 38°02' E 023°33'0 0.0
2017-Nov-12 02:30N 38°02' E 023°33'0 0.0
2017-Nov-12 02:00N 38°02' E 023°33'0 0.0
2017-Nov-12 01:30N 38°02' E 023°33'0 0.0
2017-Nov-12 01:00N 38°02' E 023°33'0 0.0
2017-Nov-12 00:30N 38°02' E 023°33'0 0.0
2017-Nov-12 00:01N 38°02' E 023°33'0 0.0
2017-Nov-11 23:30N 38°02' E 023°33'0 0.0
2017-Nov-11 23:00N 38°02' E 023°33'0 0.0
2017-Nov-11 22:30N 38°02' E 023°33'0 0.0
2017-Nov-11 22:00N 38°02' E 023°33'0 0.0
2017-Nov-11 21:30N 38°02' E 023°33'0 0.0
2017-Nov-11 21:00N 38°02' E 023°33'0 0.0
2017-Nov-11 20:30N 38°02' E 023°33'0 0.0
2017-Nov-11 20:00N 38°02' E 023°33'0 0.0
2017-Nov-11 19:30N 38°02' E 023°33'0 0.0
2017-Nov-11 19:00N 38°02' E 023°33'0 0.0
2017-Nov-11 18:30N 38°02' E 023°33'0 0.0
2017-Nov-11 18:00N 38°02' E 023°33'0 0.0
2017-Nov-11 17:30N 38°02' E 023°33'0 0.0
2017-Nov-11 17:00N 38°02' E 023°33'0 0.0
2017-Nov-11 16:30N 38°02' E 023°33'0 0.0
2017-Nov-11 16:00N 38°02' E 023°33'0 0.0
2017-Nov-11 15:30N 38°02' E 023°33'0 0.0
2017-Nov-11 15:00N 38°02' E 023°33'0 0.0
2017-Nov-11 14:30N 38°02' E 023°33'0 0.0
2017-Nov-11 14:00N 38°02' E 023°33'0 0.0
2017-Nov-11 13:30N 38°02' E 023°33'0 0.0
2017-Nov-11 13:00N 38°02' E 023°33'0 0.0
2017-Nov-11 12:30N 38°02' E 023°33'0 0.0
2017-Nov-11 12:01N 38°02' E 023°33'0 0.0
2017-Nov-11 11:30N 38°02' E 023°33'0 0.0
2017-Nov-11 11:00N 38°02' E 023°33'0 0.0
2017-Nov-11 10:30N 38°02' E 023°33'0 0.0
2017-Nov-11 10:00N 38°02' E 023°33'0 0.0
2017-Nov-11 09:30N 38°02' E 023°33'0 0.0
2017-Nov-11 09:00N 38°02' E 023°33'0 0.0
2017-Nov-11 08:30N 38°02' E 023°33'0 0.0
2017-Nov-11 08:00N 38°02' E 023°33'0 0.0
2017-Nov-11 07:30N 38°02' E 023°33'0 0.0
2017-Nov-11 07:00N 38°02' E 023°33'0 0.0
2017-Nov-11 06:30N 38°02' E 023°33'0 0.0
2017-Nov-11 06:00N 38°02' E 023°33'1 1.4
2017-Nov-11 05:30N 38°01' E 023°33'4 8.8
2017-Nov-11 05:00N 37°57' E 023°34'4 8.4
2017-Nov-11 04:30N 37°53' E 023°36'5 9.6
2017-Nov-11 04:00N 37°49' E 023°39'4 8.9
2017-Nov-11 03:30N 37°45' E 023°42'5 9.0
2017-Nov-11 03:00N 37°41' E 023°44'5 9.5
2017-Nov-11 02:28N 37°36' E 023°47'12710.2
2017-Nov-10 13:58N 35°33' E 024°26'510.4
2017-Nov-10 13:30N 35°28' E 024°27'510.2
2017-Nov-10 13:00N 35°23' E 024°29'1 2.1
2017-Nov-10 12:30N 35°22' E 024°29'0 0.0
2017-Nov-10 12:00N 35°22' E 024°29'0 0.0
2017-Nov-10 11:30N 35°22' E 024°29'0 0.0
2017-Nov-10 11:00N 35°22' E 024°29'0 0.0
2017-Nov-10 10:30N 35°22' E 024°29'0 0.0
2017-Nov-10 10:00N 35°22' E 024°29'0 0.0
2017-Nov-10 09:30N 35°22' E 024°29'0 0.0
2017-Nov-10 09:00N 35°22' E 024°29'0 0.0
2017-Nov-10 08:30N 35°22' E 024°29'0 0.0
2017-Nov-10 08:00N 35°22' E 024°29'0 0.0
2017-Nov-10 07:30N 35°22' E 024°29'0 0.0
2017-Nov-10 07:00N 35°22' E 024°29'0 0.0
2017-Nov-10 06:30N 35°22' E 024°29'0 0.0
2017-Nov-10 06:00N 35°22' E 024°29'0 0.0
2017-Nov-10 05:30N 35°22' E 024°29'0 0.0
2017-Nov-10 05:00N 35°22' E 024°29'0 0.0
2017-Nov-10 04:30N 35°22' E 024°29'0 0.0
2017-Nov-10 04:00N 35°22' E 024°29'0 0.0
2017-Nov-10 03:30N 35°22' E 024°29'0 0.0
2017-Nov-10 03:00N 35°22' E 024°29'0 0.0
2017-Nov-10 02:30N 35°22' E 024°29'0 0.0
2017-Nov-10 02:00N 35°22' E 024°29'0 0.0
2017-Nov-10 01:30N 35°22' E 024°29'0 0.0
2017-Nov-10 01:00N 35°22' E 024°29'0 0.0
2017-Nov-10 00:30N 35°22' E 024°29'0 0.0
2017-Nov-10 00:00N 35°22' E 024°29'0 0.0
2017-Nov-09 23:30N 35°22' E 024°29'0 0.0
2017-Nov-09 23:00N 35°22' E 024°29'0 0.0
2017-Nov-09 22:30N 35°22' E 024°29'0 0.0
2017-Nov-09 22:00N 35°22' E 024°29'0 0.0
2017-Nov-09 21:30N 35°22' E 024°29'0 0.0
2017-Nov-09 21:00N 35°22' E 024°29'0 0.0
2017-Nov-09 20:30N 35°22' E 024°29'1 2.8
2017-Nov-09 20:00N 35°23' E 024°30'138 4.9
2017-Nov-08 15:55N 37°37' E 023°47'4 9.8
2017-Nov-08 15:30N 37°40' E 023°43'5 9.8
2017-Nov-08 15:00N 37°44' E 023°40'510.0
2017-Nov-08 14:30N 37°48' E 023°38'510.2
2017-Nov-08 14:00N 37°53' E 023°36'5 9.2
2017-Nov-08 13:30N 37°57' E 023°33'5 9.6
2017-Nov-08 13:00N 38°02' E 023°33'0 0.0
2017-Nov-08 12:30N 38°02' E 023°33'0 0.0
2017-Nov-08 12:01N 38°02' E 023°33'0 0.0
2017-Nov-08 11:30N 38°02' E 023°33'0 0.0
2017-Nov-08 11:00N 38°02' E 023°33'0 0.0
2017-Nov-08 10:30N 38°02' E 023°33'0 0.0
2017-Nov-08 10:00N 38°02' E 023°33'0 0.0
2017-Nov-08 09:30N 38°02' E 023°33'0 0.0
2017-Nov-08 09:00N 38°02' E 023°33'0 0.0
2017-Nov-08 08:30N 38°02' E 023°33'0 0.0
2017-Nov-08 08:00N 38°02' E 023°33'0 0.0
2017-Nov-08 07:30N 38°02' E 023°33'0 0.0
2017-Nov-08 07:00N 38°02' E 023°33'0 0.0
2017-Nov-08 06:30N 38°02' E 023°33'0 0.0
2017-Nov-08 06:00N 38°02' E 023°33'0 0.0
2017-Nov-08 05:30N 38°02' E 023°33'0 0.0
2017-Nov-08 05:00N 38°02' E 023°33'0 0.0
2017-Nov-08 04:30N 38°02' E 023°33'0 0.0
2017-Nov-08 04:00N 38°02' E 023°33'  
Track history (hours):
 
Tides and Currents Weather Stations Pressure Air Temp Water Temp Dewpoint Dewpoint Depression Visibility Wind Speed Wind Dir Waves Ship Positions

Maria P

Last reported at 2017-Nov-18 03:55 UTC. Time now 2017-Nov-18 04:43 UTC.
Position N 35°22' E 024°29'.

Length 73 m; draft 3 m.

Type: Cargo ship. MMSI: 237128700.

Date/timePositionNaut miles runAvg speedWind from/ knotsBaromVisibWave heightAir tempDewpointWater temp
2017-Nov-18 03:55N 35°22' E 024°29'0 0.0
2017-Nov-18 03:31N 35°22' E 024°29'0 0.0
2017-Nov-18 03:00N 35°22' E 024°29'0 0.0
2017-Nov-18 02:31N 35°22' E 024°29'0 0.0
2017-Nov-18 02:01N 35°22' E 024°29'0 0.0
2017-Nov-18 01:30N 35°22' E 024°29'0 0.0
2017-Nov-18 01:01N 35°22' E 024°29'0 0.0
2017-Nov-18 00:30N 35°22' E 024°29'0 0.0
2017-Nov-18 00:00N 35°22' E 024°29'0 0.0
2017-Nov-17 23:31N 35°22' E 024°29'0 0.0
2017-Nov-17 23:00N 35°22' E 024°29'0 0.0
2017-Nov-17 22:30N 35°22' E 024°29'0 0.0
2017-Nov-17 22:00N 35°22' E 024°29'0 0.0
2017-Nov-17 21:30N 35°22' E 024°29'0 0.0
2017-Nov-17 21:00N 35°22' E 024°29'0 0.0
2017-Nov-17 20:31N 35°22' E 024°29'0 0.0
2017-Nov-17 20:00N 35°22' E 024°29'0 0.0
2017-Nov-17 19:31N 35°22' E 024°29'0 0.0
2017-Nov-17 19:00N 35°22' E 024°29'2 3.3
2017-Nov-17 18:30N 35°23' E 024°30'141 6.0
2017-Nov-16 19:08N 37°39' E 023°44'1 8.7
2017-Nov-16 19:00N 37°40' E 023°43'4 8.7
2017-Nov-16 18:30N 37°43' E 023°40'4 8.9
2017-Nov-16 18:00N 37°47' E 023°38'5 9.4
2017-Nov-16 17:30N 37°52' E 023°36'5 9.9
2017-Nov-16 17:00N 37°57' E 023°35'4 8.6
2017-Nov-16 16:31N 38°01' E 023°33'1 2.7
2017-Nov-16 16:00N 38°02' E 023°33'0 0.0
2017-Nov-16 15:30N 38°02' E 023°33'0 0.0
2017-Nov-16 15:00N 38°02' E 023°33'0 0.0
2017-Nov-16 14:30N 38°02' E 023°33'0 0.0
2017-Nov-16 14:00N 38°02' E 023°33'0 0.0
2017-Nov-16 13:30N 38°02' E 023°33'0 0.0
2017-Nov-16 13:00N 38°02' E 023°33'0 0.0
2017-Nov-16 12:30N 38°02' E 023°33'0 0.0
2017-Nov-16 12:00N 38°02' E 023°33'0 0.0
2017-Nov-16 11:30N 38°02' E 023°33'0 0.0
2017-Nov-16 11:00N 38°02' E 023°33'0 0.0
2017-Nov-16 10:30N 38°02' E 023°33'0 0.0
2017-Nov-16 10:00N 38°02' E 023°33'0 0.0
2017-Nov-16 09:30N 38°02' E 023°33'0 0.0
2017-Nov-16 09:00N 38°02' E 023°33'0 0.0
2017-Nov-16 08:30N 38°02' E 023°33'0 0.0
2017-Nov-16 08:00N 38°02' E 023°33'0 0.0
2017-Nov-16 07:30N 38°02' E 023°33'0 0.0
2017-Nov-16 07:00N 38°02' E 023°33'0 0.0
2017-Nov-16 06:30N 38°02' E 023°33'0 0.0
2017-Nov-16 06:01N 38°02' E 023°33'0 0.0
2017-Nov-16 05:30N 38°02' E 023°33'0 0.0
2017-Nov-16 05:01N 38°02' E 023°33'0 0.0
2017-Nov-16 04:30N 38°02' E 023°33'0 0.0
2017-Nov-16 04:01N 38°02' E 023°33'0 0.0
2017-Nov-16 03:30N 38°02' E 023°33'0 0.0
2017-Nov-16 03:01N 38°02' E 023°33'0 0.0
2017-Nov-16 02:30N 38°02' E 023°33'0 0.0
2017-Nov-16 02:00N 38°02' E 023°33'0 0.0
2017-Nov-16 01:31N 38°02' E 023°33'0 0.0
2017-Nov-16 01:01N 38°02' E 023°33'0 0.0
2017-Nov-16 00:31N 38°02' E 023°33'0 0.0
2017-Nov-16 00:01N 38°02' E 023°33'0 0.0
2017-Nov-15 23:31N 38°02' E 023°33'0 0.0
2017-Nov-15 23:00N 38°02' E 023°33'0 0.0
2017-Nov-15 22:30N 38°02' E 023°33'0 0.0
2017-Nov-15 22:01N 38°02' E 023°33'0 0.0
2017-Nov-15 21:30N 38°02' E 023°33'0 0.0
2017-Nov-15 21:00N 38°02' E 023°33'0 0.0
2017-Nov-15 20:30N 38°02' E 023°33'0 0.0
2017-Nov-15 20:00N 38°02' E 023°33'0 0.0
2017-Nov-15 19:30N 38°02' E 023°33'0 0.0
2017-Nov-15 19:00N 38°02' E 023°33'0 0.0
2017-Nov-15 18:31N 38°02' E 023°33'0 0.0
2017-Nov-15 18:00N 38°02' E 023°33'0 0.0
2017-Nov-15 17:31N 38°02' E 023°33'0 0.0
2017-Nov-15 17:00N 38°02' E 023°33'0 0.0
2017-Nov-15 16:30N 38°02' E 023°33'0 0.0
2017-Nov-15 16:01N 38°02' E 023°33'0 0.0
2017-Nov-15 15:30N 38°02' E 023°33'0 0.0
2017-Nov-15 15:00N 38°02' E 023°33'0 0.0
2017-Nov-15 14:30N 38°02' E 023°33'0 0.0
2017-Nov-15 14:00N 38°02' E 023°33'0 0.0
2017-Nov-15 13:31N 38°02' E 023°33'0 0.0
2017-Nov-15 13:00N 38°02' E 023°33'0 0.0
2017-Nov-15 12:30N 38°02' E 023°33'0 0.0
2017-Nov-15 12:00N 38°02' E 023°33'0 0.0
2017-Nov-15 11:30N 38°02' E 023°33'0 0.0
2017-Nov-15 11:00N 38°02' E 023°33'0 0.0
2017-Nov-15 10:31N 38°02' E 023°33'0 0.0
2017-Nov-15 10:01N 38°02' E 023°33'0 0.0
2017-Nov-15 09:31N 38°02' E 023°33'0 0.0
2017-Nov-15 09:00N 38°02' E 023°33'0 0.0
2017-Nov-15 08:30N 38°02' E 023°33'0 0.0
2017-Nov-15 08:01N 38°02' E 023°33'0 0.0
2017-Nov-15 07:30N 38°02' E 023°33'0 0.0
2017-Nov-15 07:00N 38°02' E 023°33'0 0.0
2017-Nov-15 06:30N 38°02' E 023°33'0 0.0
2017-Nov-15 06:01N 38°02' E 023°33'0 0.0
2017-Nov-15 05:30N 38°02' E 023°33'0 0.0
2017-Nov-15 05:00N 38°02' E 023°33'0 0.0
2017-Nov-15 04:30N 38°02' E 023°33'0 0.0
2017-Nov-15 04:00N 38°02' E 023°33'0 0.0
2017-Nov-15 03:30N 38°02' E 023°33'0 0.0
2017-Nov-15 03:00N 38°02' E 023°33'0 0.0
2017-Nov-15 02:30N 38°02' E 023°33'0 0.0
2017-Nov-15 02:01N 38°02' E 023°33'0 0.0
2017-Nov-15 01:30N 38°02' E 023°33'0 0.0
2017-Nov-15 01:00N 38°02' E 023°33'0 0.0
2017-Nov-15 00:31N 38°02' E 023°33'0 0.0
2017-Nov-15 00:01N 38°02' E 023°33'0 0.0
2017-Nov-14 23:30N 38°02' E 023°33'0 0.0
2017-Nov-14 23:00N 38°02' E 023°33'0 0.0
2017-Nov-14 22:30N 38°02' E 023°33'0 0.0
2017-Nov-14 22:00N 38°02' E 023°33'0 0.0
2017-Nov-14 21:30N 38°02' E 023°33'0 0.0
2017-Nov-14 21:00N 38°02' E 023°33'0 0.0
2017-Nov-14 20:31N 38°02' E 023°33'0 0.0
2017-Nov-14 20:01N 38°02' E 023°33'0 0.0
2017-Nov-14 19:30N 38°02' E 023°33'0 0.0
2017-Nov-14 19:00N 38°02' E 023°33'0 0.0
2017-Nov-14 18:31N 38°02' E 023°33'0 0.0
2017-Nov-14 18:00N 38°02' E 023°33'0 0.0
2017-Nov-14 17:30N 38°02' E 023°33'0 0.0
2017-Nov-14 17:00N 38°02' E 023°33'0 0.0
2017-Nov-14 16:30N 38°02' E 023°33'0 0.0
2017-Nov-14 16:00N 38°02' E 023°33'0 0.0
2017-Nov-14 15:30N 38°02' E 023°33'0 0.0
2017-Nov-14 15:00N 38°02' E 023°33'0 0.0
2017-Nov-14 14:30N 38°02' E 023°33'0 0.0
2017-Nov-14 14:00N 38°02' E 023°33'0 0.0
2017-Nov-14 13:30N 38°02' E 023°33'0 0.0
2017-Nov-14 13:00N 38°02' E 023°33'0 0.0
2017-Nov-14 12:30N 38°02' E 023°33'0 0.0
2017-Nov-14 12:00N 38°02' E 023°33'0 0.0
2017-Nov-14 11:30N 38°02' E 023°33'0 0.0
2017-Nov-14 11:00N 38°02' E 023°33'0 0.0
2017-Nov-14 10:30N 38°02' E 023°33'0 0.0
2017-Nov-14 10:00N 38°02' E 023°33'0 0.0
2017-Nov-14 09:30N 38°02' E 023°33'0 0.0
2017-Nov-14 09:00N 38°02' E 023°33'0 0.0
2017-Nov-14 08:30N 38°02' E 023°33'0 0.0
2017-Nov-14 08:00N 38°02' E 023°33'0 0.0
2017-Nov-14 07:30N 38°02' E 023°33'0 0.0
2017-Nov-14 07:00N 38°02' E 023°33'0 0.0
2017-Nov-14 06:31N 38°02' E 023°33'0 0.0
2017-Nov-14 06:00N 38°02' E 023°33'0 0.0
2017-Nov-14 05:30N 38°02' E 023°33'0 0.0
2017-Nov-14 05:01N 38°02' E 023°33'0 0.0
2017-Nov-14 04:30N 38°02' E 023°33'0 0.0
2017-Nov-14 04:00N 38°02' E 023°33'0 0.0
2017-Nov-14 03:30N 38°02' E 023°33'0 0.0
2017-Nov-14 03:00N 38°02' E 023°33'0 0.0
2017-Nov-14 02:30N 38°02' E 023°33'0 0.0
2017-Nov-14 02:00N 38°02' E 023°33'0 0.0
2017-Nov-14 01:30N 38°02' E 023°33'0 0.0
2017-Nov-14 01:00N 38°02' E 023°33'0 0.0
2017-Nov-14 00:31N 38°02' E 023°33'0 0.0
2017-Nov-14 00:00N 38°02' E 023°33'0 0.0
2017-Nov-13 23:30N 38°02' E 023°33'0 0.0
2017-Nov-13 23:00N 38°02' E 023°33'0 0.0
2017-Nov-13 22:30N 38°02' E 023°33'0 0.0
2017-Nov-13 22:00N 38°02' E 023°33'26 0.9
2017-Nov-12 15:24N 37°39' E 023°49'410.5
2017-Nov-12 15:00N 37°40' E 023°44'5 9.7
2017-Nov-12 14:30N 37°44' E 023°40'510.2
2017-Nov-12 14:00N 37°49' E 023°38'510.3
2017-Nov-12 13:30N 37°53' E 023°35'4 8.7
2017-Nov-12 13:00N 37°57' E 023°33'5 9.5
2017-Nov-12 12:30N 38°02' E 023°33'0 0.1
2017-Nov-12 12:00N 38°02' E 023°33'0 0.0
2017-Nov-12 11:31N 38°02' E 023°33'0 0.0
2017-Nov-12 11:00N 38°02' E 023°33'0 0.0
2017-Nov-12 10:31N 38°02' E 023°33'0 0.0
2017-Nov-12 10:00N 38°02' E 023°33'0 0.0
2017-Nov-12 09:31N 38°02' E 023°33'0 0.0
2017-Nov-12 09:00N 38°02' E 023°33'0 0.0
2017-Nov-12 08:31N 38°02' E 023°33'0 0.0
2017-Nov-12 08:00N 38°02' E 023°33'0 0.0
2017-Nov-12 07:30N 38°02' E 023°33'0 0.0
2017-Nov-12 07:00N 38°02' E 023°33'0 0.0
2017-Nov-12 06:30N 38°02' E 023°33'0 0.0
2017-Nov-12 06:00N 38°02' E 023°33'0 0.0
2017-Nov-12 05:30N 38°02' E 023°33'0 0.0
2017-Nov-12 05:00N 38°02' E 023°33'0 0.0
2017-Nov-12 04:30N 38°02' E 023°33'0 0.0
2017-Nov-12 04:00N 38°02' E 023°33'0 0.0
2017-Nov-12 03:30N 38°02' E 023°33'0 0.0
2017-Nov-12 03:00N 38°02' E 023°33'0 0.0
2017-Nov-12 02:30N 38°02' E 023°33'0 0.0
2017-Nov-12 02:00N 38°02' E 023°33'0 0.0
2017-Nov-12 01:30N 38°02' E 023°33'0 0.0
2017-Nov-12 01:00N 38°02' E 023°33'0 0.0
2017-Nov-12 00:30N 38°02' E 023°33'0 0.0
2017-Nov-12 00:01N 38°02' E 023°33'0 0.0
2017-Nov-11 23:30N 38°02' E 023°33'0 0.0
2017-Nov-11 23:00N 38°02' E 023°33'0 0.0
2017-Nov-11 22:30N 38°02' E 023°33'0 0.0
2017-Nov-11 22:00N 38°02' E 023°33'0 0.0
2017-Nov-11 21:30N 38°02' E 023°33'0 0.0
2017-Nov-11 21:00N 38°02' E 023°33'0 0.0
2017-Nov-11 20:30N 38°02' E 023°33'0 0.0
2017-Nov-11 20:00N 38°02' E 023°33'0 0.0
2017-Nov-11 19:30N 38°02' E 023°33'0 0.0
2017-Nov-11 19:00N 38°02' E 023°33'0 0.0
2017-Nov-11 18:30N 38°02' E 023°33'0 0.0
2017-Nov-11 18:00N 38°02' E 023°33'0 0.0
2017-Nov-11 17:30N 38°02' E 023°33'0 0.0
2017-Nov-11 17:00N 38°02' E 023°33'0 0.0
2017-Nov-11 16:30N 38°02' E 023°33'0 0.0
2017-Nov-11 16:00N 38°02' E 023°33'0 0.0
2017-Nov-11 15:30N 38°02' E 023°33'0 0.0
2017-Nov-11 15:00N 38°02' E 023°33'0 0.0
2017-Nov-11 14:30N 38°02' E 023°33'0 0.0
2017-Nov-11 14:00N 38°02' E 023°33'0 0.0
2017-Nov-11 13:30N 38°02' E 023°33'0 0.0
2017-Nov-11 13:00N 38°02' E 023°33'0 0.0
2017-Nov-11 12:30N 38°02' E 023°33'0 0.0
2017-Nov-11 12:01N 38°02' E 023°33'0 0.0
2017-Nov-11 11:30N 38°02' E 023°33'0 0.0
2017-Nov-11 11:00N 38°02' E 023°33'0 0.0
2017-Nov-11 10:30N 38°02' E 023°33'0 0.0
2017-Nov-11 10:00N 38°02' E 023°33'0 0.0
2017-Nov-11 09:30N 38°02' E 023°33'0 0.0
2017-Nov-11 09:00N 38°02' E 023°33'0 0.0
2017-Nov-11 08:30N 38°02' E 023°33'0 0.0
2017-Nov-11 08:00N 38°02' E 023°33'0 0.0
2017-Nov-11 07:30N 38°02' E 023°33'0 0.0
2017-Nov-11 07:00N 38°02' E 023°33'0 0.0
2017-Nov-11 06:30N 38°02' E 023°33'0 0.0
2017-Nov-11 06:00N 38°02' E 023°33'1 1.4
2017-Nov-11 05:30N 38°01' E 023°33'4 8.8
2017-Nov-11 05:00N 37°57' E 023°34'4 8.4
2017-Nov-11 04:30N 37°53' E 023°36'5 9.6
2017-Nov-11 04:00N 37°49' E 023°39'4 8.9
2017-Nov-11 03:30N 37°45' E 023°42'5 9.0
2017-Nov-11 03:00N 37°41' E 023°44'5 9.5
2017-Nov-11 02:28N 37°36' E 023°47'12710.2
2017-Nov-10 13:58N 35°33' E 024°26'510.4
2017-Nov-10 13:30N 35°28' E 024°27'510.2
2017-Nov-10 13:00N 35°23' E 024°29'1 2.1
2017-Nov-10 12:30N 35°22' E 024°29'0 0.0
2017-Nov-10 12:00N 35°22' E 024°29'0 0.0
2017-Nov-10 11:30N 35°22' E 024°29'0 0.0
2017-Nov-10 11:00N 35°22' E 024°29'0 0.0
2017-Nov-10 10:30N 35°22' E 024°29'0 0.0
2017-Nov-10 10:00N 35°22' E 024°29'0 0.0
2017-Nov-10 09:30N 35°22' E 024°29'0 0.0
2017-Nov-10 09:00N 35°22' E 024°29'0 0.0
2017-Nov-10 08:30N 35°22' E 024°29'0 0.0
2017-Nov-10 08:00N 35°22' E 024°29'0 0.0
2017-Nov-10 07:30N 35°22' E 024°29'0 0.0
2017-Nov-10 07:00N 35°22' E 024°29'0 0.0
2017-Nov-10 06:30N 35°22' E 024°29'0 0.0
2017-Nov-10 06:00N 35°22' E 024°29'0 0.0
2017-Nov-10 05:30N 35°22' E 024°29'0 0.0
2017-Nov-10 05:00N 35°22' E 024°29'0 0.0
2017-Nov-10 04:30N 35°22' E 024°29'0 0.0
2017-Nov-10 04:00N 35°22' E 024°29'0 0.0
2017-Nov-10 03:30N 35°22' E 024°29'0 0.0
2017-Nov-10 03:00N 35°22' E 024°29'0 0.0
2017-Nov-10 02:30N 35°22' E 024°29'0 0.0
2017-Nov-10 02:00N 35°22' E 024°29'0 0.0
2017-Nov-10 01:30N 35°22' E 024°29'0 0.0
2017-Nov-10 01:00N 35°22' E 024°29'0 0.0
2017-Nov-10 00:30N 35°22' E 024°29'0 0.0
2017-Nov-10 00:00N 35°22' E 024°29'0 0.0
2017-Nov-09 23:30N 35°22' E 024°29'0 0.0
2017-Nov-09 23:00N 35°22' E 024°29'0 0.0
2017-Nov-09 22:30N 35°22' E 024°29'0 0.0
2017-Nov-09 22:00N 35°22' E 024°29'0 0.0
2017-Nov-09 21:30N 35°22' E 024°29'0 0.0
2017-Nov-09 21:00N 35°22' E 024°29'0 0.0
2017-Nov-09 20:30N 35°22' E 024°29'1 2.8
2017-Nov-09 20:00N 35°23' E 024°30'138 4.9
2017-Nov-08 15:55N 37°37' E 023°47'4 9.8
2017-Nov-08 15:30N 37°40' E 023°43'5 9.8
2017-Nov-08 15:00N 37°44' E 023°40'510.0
2017-Nov-08 14:30N 37°48' E 023°38'510.2
2017-Nov-08 14:00N 37°53' E 023°36'5 9.2
2017-Nov-08 13:30N 37°57' E 023°33'5 9.6
2017-Nov-08 13:00N 38°02' E 023°33'0 0.0
2017-Nov-08 12:30N 38°02' E 023°33'0 0.0
2017-Nov-08 12:01N 38°02' E 023°33'0 0.0
2017-Nov-08 11:30N 38°02' E 023°33'0 0.0
2017-Nov-08 11:00N 38°02' E 023°33'0 0.0
2017-Nov-08 10:30N 38°02' E 023°33'0 0.0
2017-Nov-08 10:00N 38°02' E 023°33'0 0.0
2017-Nov-08 09:30N 38°02' E 023°33'0 0.0
2017-Nov-08 09:00N 38°02' E 023°33'0 0.0
2017-Nov-08 08:30N 38°02' E 023°33'0 0.0
2017-Nov-08 08:00N 38°02' E 023°33'0 0.0
2017-Nov-08 07:30N 38°02' E 023°33'0 0.0
2017-Nov-08 07:00N 38°02' E 023°33'0 0.0
2017-Nov-08 06:30N 38°02' E 023°33'0 0.0
2017-Nov-08 06:00N 38°02' E 023°33'0 0.0
2017-Nov-08 05:30N 38°02' E 023°33'0 0.0
2017-Nov-08 05:00N 38°02' E 023°33'0 0.0
2017-Nov-08 04:30N 38°02' E 023°33'0 0.0
2017-Nov-08 04:00N 38°02' E 023°33'  

Dump ship's entire track history